Latest Weather Observations for Edithburgh

IDS60801

Issued at 10:31 am CST Saturday 30 April 2016 (issued every 30 minutes, with the page automatically refreshed every 10 minutes)

About weather observations | Map of weather stations | Latest weather observations for SA | Other Formats
Station Details ID: 022046 Name: EDITHBURGH Lat: -35.11 Lon: 137.74 Height: 6.0 m
Data from the previous 72 hours. | See also: Recent months at Edithburgh
Date/Time
CST
Temp
°C
App
Temp
°C
Dew
Point
Rel
Hum
%
Delta-T
°C
Wind Press
QNH
hPa
Press
MSL
hPa
Rain
since 9 am
mm
Dir
 
Spd
km/h
Gust
km/h
Spd
kts
Gust
kts
30/10:30am 23.2 16.3 6.4 33 8.6 NNW 32 41 17 22 1010.7 1010.7 0.0
30/10:00am 21.7 16.8 8.4 42 7.0 N 24 30 13 16 1011.2 1011.2 0.0
30/09:30am 20.5 17.2 10.8 53 5.3 N 19 26 10 14 1011.6 1011.6 0.0
30/09:00am 18.9 15.9 12.0 64 3.8 N 19 28 10 15 1011.9 1011.9 0.2
30/08:30am 17.2 15.5 13.5 79 2.1 N 15 20 8 11 1012.0 1012.0 0.2
30/08:00am 15.9 14.3 13.8 87 1.2 N 15 20 8 11 1011.9 1011.9 0.2
30/07:30am 14.7 12.8 13.1 90 0.9 N 15 19 8 10 1011.8 1011.8 0.2
30/07:00am 14.0 11.6 12.7 92 0.7 N 17 22 9 12 1011.6 1011.6 0.2
30/06:30am 13.6 11.9 12.5 93 0.6 N 13 19 7 10 1011.5 1011.5 0.2
30/06:00am 12.8 11.2 11.7 93 0.6 N 11 15 6 8 1011.5 1011.5 0.2
30/05:30am 12.5 10.5 11.6 94 0.5 N 13 15 7 8 1011.4 1011.4 0.2
30/05:00am 12.6 11.0 11.7 94 0.5 N 11 15 6 8 1011.3 1011.3 0.2
30/04:30am 12.1 10.4 11.3 95 0.4 N 11 13 6 7 1011.4 1011.4 0.2
30/04:00am 11.9 10.5 10.9 94 0.5 N 9 13 5 7 1011.3 1011.3 0.2
30/03:30am 11.4 9.9 10.6 95 0.4 N 9 11 5 6 1011.3 1011.3 0.2
30/03:00am 13.0 11.9 11.9 93 0.6 N 9 11 5 6 1011.4 1011.4 0.2
30/02:30am 11.4 9.9 10.4 94 0.5 N 9 9 5 5 1011.5 1011.5 0.2
30/02:00am 9.8 7.4 8.8 93 0.5 N 11 13 6 7 1011.7 1011.7 0.2
30/01:30am 11.8 9.9 10.6 92 0.6 NNW 11 11 6 6 1012.0 1012.0 0.2
30/01:00am 11.4 9.5 10.6 95 0.4 NNW 11 13 6 7 1012.1 1012.1 0.2
30/12:30am 11.9 10.1 10.9 94 0.5 NNW 11 13 6 7 1012.0 1012.0 0.2
30/12:00am 12.1 10.0 11.0 93 0.6 NNW 13 15 7 8 1012.3 1012.3 0.2
 
Date/Time
CST
Temp
°C
App
Temp
°C
Dew
Point
Rel
Hum
%
Delta-T
°C
Wind Press
QNH
hPa
Press
MSL
hPa
Rain
since 9 am
mm
Dir
 
Spd
km/h
Gust
km/h
Spd
kts
Gust
kts
29/11:30pm 12.0 9.7 10.6 91 0.7 NNW 13 15 7 8 1012.5 1012.5 0.2
29/11:00pm 11.6 9.1 9.8 89 0.9 NNW 13 15 7 8 1012.6 1012.6 0.2
29/10:30pm 11.8 10.3 10.4 91 0.7 NNW 9 11 5 6 1012.8 1012.8 0.2
29/10:00pm 12.9 11.8 12.0 94 0.5 NW 9 9 5 5 1012.8 1012.8 0.2
29/09:30pm 12.3 11.4 11.4 94 0.5 NW 7 7 4 4 1012.6 1012.6 0.2
29/09:00pm 12.3 11.5 11.0 92 0.7 NW 6 6 3 3 1012.6 1012.6 0.2
29/08:30pm 13.3 13.4 11.6 89 0.9 WSW 2 2 1 1 1012.3 1012.3 0.2
29/08:00pm 13.9 13.7 11.9 88 1.1 WSW 4 4 2 2 1012.3 1012.3 0.2
29/07:30pm 14.7 14.7 12.3 85 1.3 SSW 4 6 2 3 1012.1 1012.1 0.2
29/07:00pm 16.2 16.2 13.5 84 1.5 SSW 6 7 3 4 1011.8 1011.8 0.2
29/06:30pm 16.8 16.9 12.7 77 2.3 SSW 4 6 2 3 1011.5 1011.5 0.2
29/06:00pm 18.0 17.8 13.0 72 2.8 SSW 6 7 3 4 1011.2 1011.2 0.2
29/05:30pm 18.7 17.9 12.8 68 3.3 SSW 9 13 5 7 1011.1 1011.1 0.2
29/05:00pm 20.2 20.5 14.4 69 3.4 ENE 6 9 3 5 1011.0 1011.0 0.2
29/04:30pm 20.7 21.2 14.0 65 3.9 SE 4 7 2 4 1010.8 1010.8 0.2
29/04:00pm 21.3 21.8 15.0 67 3.7 SSE 6 9 3 5 1010.8 1010.8 0.2
29/03:30pm 22.7 21.5 12.9 54 5.6 W 11 15 6 8 1010.7 1010.7 0.2
29/03:00pm 23.4 21.4 12.8 51 6.1 NW 15 24 8 13 1010.3 1010.3 0.2
29/02:30pm 22.7 22.0 14.2 58 5.0 W 11 20 6 11 1010.1 1010.1 0.2
29/02:00pm 22.5 20.5 13.9 58 5.0 WNW 17 26 9 14 1010.3 1010.3 0.2
29/01:30pm 23.1 20.8 14.7 59 5.0 WNW 20 28 11 15 1010.0 1010.0 0.2
29/01:00pm 22.4 20.3 14.6 61 4.6 WNW 19 30 10 16 1010.4 1010.4 0.0
29/12:30pm 21.7 19.5 14.4 63 4.3 WNW 19 26 10 14 1010.5 1010.5 0.0
29/12:00pm 20.7 21.4 16.0 74 2.8 NNE 7 13 4 7 1010.7 1010.7 0.0
29/11:30am 20.4 20.6 15.7 74 2.8 NNE 9 15 5 8 1011.2 1011.2 0.0
29/11:00am 19.4 19.4 15.1 76 2.5 NE 9 15 5 8 1011.6 1011.6 0.0
29/10:30am 18.4 18.5 14.4 77 2.3 NE 7 9 4 5 1011.9 1011.9 0.0
29/10:00am 17.1 17.9 13.7 80 1.9 E 2 7 1 4 1011.9 1011.9 0.0
29/09:30am 16.3 17.4 14.6 90 1.0 SSW 2 4 1 2 1012.2 1012.2 0.0
29/09:00am 15.2 16.5 14.1 93 0.6 CALM 0 0 0 0 1012.3 1012.3 2.0
29/08:30am 15.0 15.1 13.9 93 0.6 WSW 6 11 3 6 1012.8 1012.8 2.0
29/08:00am 15.0 15.8 13.6 91 0.8 WSW 2 4 1 2 1012.5 1012.5 1.8
29/07:30am 14.8 15.1 13.4 91 0.8 N 4 6 2 3 1011.9 1011.9 1.8
29/07:00am 15.0 15.2 13.0 88 1.1 WSW 4 11 2 6 1012.1 1012.1 1.4
29/06:30am 15.4 14.6 12.9 85 1.4 W 9 9 5 5 1012.1 1012.1 1.0
29/06:00am 15.4 14.9 12.7 84 1.5 W 7 7 4 4 1012.1 1012.1 1.0
29/05:30am 15.5 15.0 12.8 84 1.5 W 7 9 4 5 1012.0 1012.0 1.0
29/05:00am 15.7 15.0 13.2 85 1.4 WNW 9 13 5 7 1012.0 1012.0 1.0
29/04:30am 15.8 15.6 13.7 87 1.2 N 7 9 4 5 1011.8 1011.8 1.0
29/04:00am 15.9 15.8 13.8 87 1.2 NW 7 9 4 5 1011.8 1011.8 1.0
29/03:30am 16.5 15.9 13.5 82 1.7 WNW 9 13 5 7 1011.7 1011.7 1.0
29/03:00am 17.2 15.6 14.0 81 1.8 W 15 24 8 13 1012.1 1012.1 1.0
29/02:30am 17.7 16.9 16.0 90 1.0 WNW 15 22 8 12 1011.9 1011.9 0.8
29/02:00am 18.6 16.7 16.6 88 1.2 WNW 22 28 12 15 1011.7 1011.7 0.6
29/01:30am 20.5 16.9 14.3 67 3.6 NW 26 35 14 19 1011.6 1011.6 0.4
29/01:00am 20.7 16.1 11.1 54 5.3 NNW 26 33 14 18 1010.7 1010.7 0.4
29/12:30am 21.2 16.5 9.2 46 6.4 NNW 24 35 13 19 1010.9 1010.9 0.4
29/12:00am 21.5 16.9 9.6 46 6.4 N 24 39 13 21 1010.0 1010.0 0.4
 
Date/Time
CST
Temp
°C
App
Temp
°C
Dew
Point
Rel
Hum
%
Delta-T
°C
Wind Press
QNH
hPa
Press
MSL
hPa
Rain
since 9 am
mm
Dir
 
Spd
km/h
Gust
km/h
Spd
kts
Gust
kts
28/11:30pm 21.7 15.5 9.4 45 6.6 N 32 44 17 24 1010.3 1010.3 0.2
28/11:13pm 21.9 16.6 9.9 46 6.5 N 28 46 15 25 1010.3 1010.3 0.2
28/11:00pm 19.8 18.2 15.9 78 2.3 NNE 19 28 10 15 1010.1 1010.1 0.2
28/10:30pm 19.6 18.5 16.4 82 1.9 NNE 17 24 9 13 1010.0 1010.0 0.2
28/10:00pm 19.9 19.5 16.2 79 2.2 NNE 13 20 7 11 1010.3 1010.3 0.2
28/09:30pm 20.3 19.4 15.8 75 2.7 NNE 15 24 8 13 1010.6 1010.6 0.2
28/09:00pm 20.1 19.8 16.4 79 2.2 NNE 13 22 7 12 1010.8 1010.8 0.2
28/08:30pm 20.4 19.0 16.6 79 2.3 NE 19 26 10 14 1010.9 1010.9 0.2
28/08:00pm 19.7 19.1 16.7 83 1.8 NE 15 20 8 11 1011.2 1011.2 0.2
28/07:30pm 18.9 18.7 16.7 87 1.3 ENE 13 17 7 9 1011.1 1011.1 0.2
28/07:00pm 18.6 18.4 16.6 88 1.2 ENE 13 15 7 8 1011.5 1011.5 0.2
28/06:30pm 18.5 18.8 16.0 85 1.5 E 9 13 5 7 1011.5 1011.5 0.2
28/06:00pm 18.0 18.6 15.3 84 1.6 E 6 7 3 4 1011.8 1011.8 0.2
28/05:30pm 17.9 17.4 15.0 83 1.7 ESE 11 15 6 8 1011.6 1011.6 0.2
28/05:00pm 18.1 17.2 14.8 81 1.9 SE 13 17 7 9 1011.8 1011.8 0.0
28/04:30pm 18.5 16.9 14.0 75 2.6 SE 15 20 8 11 1011.8 1011.8 0.0
28/04:00pm 19.4 18.3 13.0 66 3.6 SSE 11 17 6 9 1012.4 1012.4 0.0
28/03:30pm 18.9 17.6 13.6 71 3.0 SE 13 17 7 9 1012.7 1012.7 0.0
28/03:00pm 18.5 18.1 14.0 75 2.6 SE 9 15 5 8 1013.1 1013.1 0.0
28/02:30pm 18.6 17.7 13.7 73 2.8 SSE 11 13 6 7 1013.7 1013.7 0.0
28/02:00pm 18.8 17.1 13.7 72 2.9 SE 15 20 8 11 1013.6 1013.6 0.0
28/01:30pm 18.7 17.4 13.6 72 2.9 ESE 13 17 7 9 1014.4 1014.4 0.0
28/01:00pm 19.3 17.5 13.3 68 3.4 ESE 15 20 8 11 1014.7 1014.7 0.0
28/12:30pm 19.4 17.9 13.2 67 3.5 E 13 17 7 9 1015.4 1015.4 0.0
28/12:00pm 19.3 17.6 13.5 69 3.3 ENE 15 19 8 10 1016.0 1016.0 0.0
28/11:30am 19.3 18.6 13.3 68 3.4 ENE 9 13 5 7 1016.6 1016.6 0.0
28/11:00am 18.7 18.2 12.2 66 3.6 E 6 9 3 5 1017.1 1017.1 0.0
28/10:30am 18.5 18.4 13.2 71 3.0 NE 6 9 3 5 1017.5 1017.5 0.0
28/10:00am 17.6 18.1 13.9 79 2.1 NE 4 6 2 3 1017.8 1017.8 0.0
28/09:30am 17.4 17.1 14.4 82 1.7 ENE 9 13 5 7 1017.9 1017.9 0.0
28/09:00am 17.6 17.6 15.2 86 1.4 ENE 9 13 5 7 1017.9 1017.9 1.8
28/08:30am 16.7 17.6 15.1 90 0.9 ENE 4 6 2 3 1017.8 1017.8 1.8
28/08:00am 15.9 17.2 15.2 96 0.4 NNE 2 6 1 3 1017.5 1017.5 1.8
28/07:30am 15.5 16.3 14.8 96 0.4 N 4 7 2 4 1017.4 1017.4 1.8
28/07:00am 15.4 15.7 14.5 94 0.5 NNW 6 7 3 4 1017.1 1017.1 0.6
28/06:30am 14.6 15.6 13.2 91 0.8 CALM 0 0 0 0 1016.4 1016.4 0.2
28/06:00am 14.6 14.9 13.3 92 0.7 WNW 4 6 2 3 1016.4 1016.4 0.0
28/05:30am 14.3 14.3 12.5 89 1.0 WNW 4 6 2 3 1016.3 1016.3 0.0
28/05:00am 14.2 14.8 11.8 85 1.3 CALM 0 2 0 1 1016.3 1016.3 0.0
28/04:30am 15.4 15.6 12.9 85 1.4 SSW 4 6 2 3 1015.9 1015.9 0.0
28/04:00am 15.5 15.5 12.4 82 1.7 WSW 4 6 2 3 1016.1 1016.1 0.0
28/03:30am 15.7 15.3 12.4 81 1.8 WSW 6 7 3 4 1016.2 1016.2 0.0
28/03:00am 16.2 15.3 12.6 79 2.0 WSW 9 13 5 7 1016.3 1016.3 0.0
28/02:30am 16.2 16.2 13.5 84 1.5 SW 6 7 3 4 1016.2 1016.2 0.0
28/02:00am 16.9 16.7 13.5 80 1.9 SW 7 9 4 5 1016.1 1016.1 0.0
28/01:30am 17.1 16.8 13.2 78 2.2 SW 7 13 4 7 1015.9 1015.9 0.0
28/01:00am 17.4 16.2 14.1 81 1.9 SW 13 19 7 10 1015.6 1015.6 0.0
28/12:30am 18.1 17.7 15.2 83 1.7 WSW 11 17 6 9 1015.2 1015.2 0.0
28/12:00am 18.3 17.7 14.5 78 2.2 WSW 11 19 6 10 1015.1 1015.1 0.0
 
Date/Time
CST
Temp
°C
App
Temp
°C
Dew
Point
Rel
Hum
%
Delta-T
°C
Wind Press
QNH
hPa
Press
MSL
hPa
Rain
since 9 am
mm
Dir
 
Spd
km/h
Gust
km/h
Spd
kts
Gust
kts
27/11:30pm 18.5 17.5 14.7 78 2.2 SW 13 17 7 9 1014.9 1014.9 0.0
27/11:00pm 18.6 16.8 14.4 76 2.4 SW 17 24 9 13 1014.8 1014.8 0.0
27/10:30pm 18.6 16.4 14.3 76 2.5 SW 19 26 10 14 1014.4 1014.4 0.0
27/10:00pm 18.6 16.6 15.0 79 2.1 WSW 19 28 10 15 1014.2 1014.2 0.0
27/09:30pm 18.6 16.4 14.3 76 2.5 WSW 19 24 10 13 1014.0 1014.0 0.0
27/09:00pm 18.9 17.1 12.2 65 3.7 WSW 13 19 7 10 1014.0 1014.0 0.0
27/08:30pm 18.8 18.2 14.7 77 2.4 WSW 11 20 6 11 1013.4 1013.4 0.0
27/08:00pm 18.9 18.5 15.1 78 2.2 WSW 11 15 6 8 1013.4 1013.4 0.0
27/07:30pm 19.3 18.5 15.2 77 2.4 WSW 13 20 7 11 1013.3 1013.3 0.0
27/07:00pm 18.8 18.3 13.9 73 2.8 WSW 9 15 5 8 1013.0 1013.0 0.0
27/06:30pm 19.5 18.0 13.2 67 3.6 WSW 13 19 7 10 1012.7 1012.7 0.0
27/06:00pm 20.2 18.9 11.1 56 5.0 WSW 9 13 5 7 1012.2 1012.2 0.0
27/05:30pm 22.7 19.9 11.2 48 6.4 WNW 17 22 9 12 1011.5 1011.5 0.0
27/05:00pm 23.5 20.0 10.9 45 7.0 W 20 26 11 14 1011.1 1011.1 0.0
27/04:30pm 27.0 21.4 3.2 21 11.8 NW 22 30 12 16 1010.8 1010.8 0.0
27/04:00pm 26.8 20.1 1.3 19 12.2 NNW 26 32 14 17 1010.8 1010.8 0.0
27/03:30pm 26.2 19.2 2.2 21 11.6 NNW 28 37 15 20 1010.8 1010.8 0.0
27/03:00pm 26.1 19.9 2.4 21 11.5 NNW 24 35 13 19 1010.7 1010.7 0.0
27/02:30pm 25.8 18.8 2.2 21 11.4 NNW 28 37 15 20 1010.6 1010.6 0.0
27/02:00pm 25.8 17.8 1.4 20 11.6 NNW 33 43 18 23 1010.5 1010.5 0.0
27/01:30pm 25.9 16.6 0.5 19 11.9 NNW 39 50 21 27 1010.7 1010.7 0.0
27/01:00pm 26.3 16.1 -0.3 17 12.3 NNW 43 56 23 30 1010.7 1010.7 0.0
27/12:30pm 27.8 17.4 -0.5 16 13.2 NNW 44 59 24 32 1010.7 1010.7 0.0
27/12:00pm 27.1 15.5 -0.5 16 12.8 NNW 50 63 27 34 1011.0 1011.0 0.0
27/11:36am 26.8 15.8 0.9 18 12.3 NNW 48 67 26 36 1011.6 1011.6 0.0
27/11:30am 26.6 15.3 1.2 19 12.1 NNW 50 65 27 35 1011.6 1011.6 0.0
27/11:00am 25.4 15.4 2.4 22 11.1 NNW 44 61 24 33 1011.9 1011.9 0.0

Other Formats:

Comma delimited format used in spreadsheet applications
http://www.bom.gov.au/fwo/IDS60801/IDS60801.94809.axf

JavaScript Object Notation format (JSON) in row-major order
http://www.bom.gov.au/fwo/IDS60801/IDS60801.94809.json